• Join FlightAware (Why Join?)
  • Login
  • US Flag 
07:57AM EDT


 

Airport Tracker/Info


-or-


 

Live Flight TrackerFlight Track Log ✈ N210FT ✈ 06-Dec-2013 ✈ X61 - KINF

Flight Track Log - Related Links

Times and Time Zones

All times are in EST time to prevent confusion due to time zone crossing. See the N210FT flight status page for this flight to view local times or setup timezone preferences in your user account.

Time Position Orientation Groundspeed Altitude Reporting Facility
EST Latitude Longitude Course Direction KTS MPH feet Rate Location/Type
01:57PM 28.5833 -81.7667 291° West 103 119 2,400  Level Orlando TRACON
01:59PM 28.5833 -81.8000 270° West 107 123 2,500  Climbing Orlando TRACON
02:00PM 28.6000 -81.8333 300° West 109 125 2,400  Descending Orlando TRACON
02:01PM 28.6167 -81.8667 300° West 104 120 2,500  Climbing Orlando TRACON
02:02PM 28.6178 -81.8969 272° West 104 120 2,500  Level Jacksonville Center
02:03PM 28.7798 -82.0738 291° West  Level Estimated
02:03PM 28.6242 -81.9322 282° West 108 124 2,500  Level Jacksonville Center
02:04PM 28.6369 -81.9606 297° West 107 123 2,400  Descending Jacksonville Center
02:05PM 28.6414 -81.9983 278° West 103 119 2,500 -60 Climbing Jacksonville Center
02:06PM 28.6478 -82.0339 282° West 111 128 2,300 -60 Descending Jacksonville Center
02:07PM 28.6503 -82.0644 275° West 102 117 2,400 60 Climbing Jacksonville Center
02:08PM 28.6586 -82.0953 287° West 100 115 2,500  Climbing Jacksonville Center
02:09PM 28.6736 -82.1236 301° West 104 120 2,500 -60 Level Jacksonville Center
02:10PM 28.6819 -82.1589 285° West 112 129 2,400 -60 Descending Jacksonville Center
02:11PM 28.6969 -82.1897 299° West 110 127 2,400  Level Jacksonville Center
02:13PM 28.7261 -82.2248 291° West  Level Estimated
02:20PM 28.8000 -82.3167 291° West  Level FlightAware Approximate
02:21PM 28.8036 -82.3183 291° West  Level Estimated
02:22PM 28.8000 -82.3167 291° West  Level FlightAware Approximate
02:23PM 28.8036 -82.3183 291° West  Level Estimated
02:24PM 28.8000 -82.3167 291° West  Level FlightAware Approximate